sensor_id;sensor_type;location;lat;lon;timestamp;P1;durP1;ratioP1;P2;durP2;ratioP2
11988;SDS011;6054;50.966;7.094;2023-07-16T00:01:01;3.60;;;1.45;;
11988;SDS011;6054;50.966;7.094;2023-07-16T00:03:28;1.98;;;1.73;;
11988;SDS011;6054;50.966;7.094;2023-07-16T00:05:55;2.63;;;1.70;;
11988;SDS011;6054;50.966;7.094;2023-07-16T00:08:22;3.40;;;1.60;;
11988;SDS011;6054;50.966;7.094;2023-07-16T00:10:49;4.22;;;1.83;;
11988;SDS011;6054;50.966;7.094;2023-07-16T00:13:15;1.60;;;1.50;;
11988;SDS011;6054;50.966;7.094;2023-07-16T00:15:42;1.67;;;1.38;;
11988;SDS011;6054;50.966;7.094;2023-07-16T00:18:10;4.40;;;1.40;;
11988;SDS011;6054;50.966;7.094;2023-07-16T00:20:37;1.63;;;1.52;;
11988;SDS011;6054;50.966;7.094;2023-07-16T00:23:04;1.65;;;1.40;;
11988;SDS011;6054;50.966;7.094;2023-07-16T00:25:31;5.40;;;1.60;;
11988;SDS011;6054;50.966;7.094;2023-07-16T00:27:57;2.22;;;1.50;;
11988;SDS011;6054;50.966;7.094;2023-07-16T00:30:24;3.42;;;1.52;;
11988;SDS011;6054;50.966;7.094;2023-07-16T00:32:51;1.65;;;1.55;;
11988;SDS011;6054;50.966;7.094;2023-07-16T00:35:19;4.65;;;1.40;;
11988;SDS011;6054;50.966;7.094;2023-07-16T00:37:46;1.42;;;1.25;;
11988;SDS011;6054;50.966;7.094;2023-07-16T00:40:13;1.30;;;1.17;;
11988;SDS011;6054;50.966;7.094;2023-07-16T00:42:39;4.57;;;1.40;;
11988;SDS011;6054;50.966;7.094;2023-07-16T00:45:08;3.10;;;1.48;;
11988;SDS011;6054;50.966;7.094;2023-07-16T00:47:37;1.80;;;1.35;;
11988;SDS011;6054;50.966;7.094;2023-07-16T00:50:05;2.78;;;1.60;;
11988;SDS011;6054;50.966;7.094;2023-07-16T00:52:35;3.40;;;1.40;;
11988;SDS011;6054;50.966;7.094;2023-07-16T00:55:02;1.00;;;1.00;;
11988;SDS011;6054;50.966;7.094;2023-07-16T00:57:29;2.17;;;1.60;;
11988;SDS011;6054;50.966;7.094;2023-07-16T00:59:56;2.38;;;1.35;;
11988;SDS011;6054;50.966;7.094;2023-07-16T01:02:23;1.75;;;1.30;;
11988;SDS011;6054;50.966;7.094;2023-07-16T01:04:51;2.40;;;1.38;;
11988;SDS011;6054;50.966;7.094;2023-07-16T01:07:18;3.15;;;1.42;;
11988;SDS011;6054;50.966;7.094;2023-07-16T01:09:50;3.10;;;1.50;;
11988;SDS011;6054;50.966;7.094;2023-07-16T01:12:19;2.92;;;1.60;;
11988;SDS011;6054;50.966;7.094;2023-07-16T01:14:48;2.42;;;1.40;;
11988;SDS011;6054;50.966;7.094;2023-07-16T01:17:16;3.03;;;1.60;;
11988;SDS011;6054;50.966;7.094;2023-07-16T01:19:43;2.45;;;1.55;;
11988;SDS011;6054;50.966;7.094;2023-07-16T01:22:16;1.95;;;1.40;;
11988;SDS011;6054;50.966;7.094;2023-07-16T01:28:18;1.88;;;1.42;;
11988;SDS011;6054;50.966;7.094;2023-07-16T01:31:06;3.60;;;1.45;;
11988;SDS011;6054;50.966;7.094;2023-07-16T01:33:34;1.40;;;1.27;;
11988;SDS011;6054;50.966;7.094;2023-07-16T01:36:02;3.22;;;1.42;;
11988;SDS011;6054;50.966;7.094;2023-07-16T01:38:30;3.50;;;1.38;;
11988;SDS011;6054;50.966;7.094;2023-07-16T01:40:58;2.67;;;1.40;;
11988;SDS011;6054;50.966;7.094;2023-07-16T01:43:25;2.88;;;1.38;;
11988;SDS011;6054;50.966;7.094;2023-07-16T01:45:51;2.28;;;1.20;;
11988;SDS011;6054;50.966;7.094;2023-07-16T01:48:24;2.70;;;1.48;;
11988;SDS011;6054;50.966;7.094;2023-07-16T01:50:56;4.78;;;1.20;;
11988;SDS011;6054;50.966;7.094;2023-07-16T01:53:31;2.88;;;1.38;;
11988;SDS011;6054;50.966;7.094;2023-07-16T01:55:58;3.25;;;1.35;;
11988;SDS011;6054;50.966;7.094;2023-07-16T01:58:27;1.85;;;1.33;;
11988;SDS011;6054;50.966;7.094;2023-07-16T02:00:53;2.50;;;1.40;;
11988;SDS011;6054;50.966;7.094;2023-07-16T02:03:20;4.22;;;1.70;;
11988;SDS011;6054;50.966;7.094;2023-07-16T02:05:49;4.32;;;1.40;;
11988;SDS011;6054;50.966;7.094;2023-07-16T02:08:16;4.43;;;2.10;;
11988;SDS011;6054;50.966;7.094;2023-07-16T02:10:43;2.97;;;1.25;;
11988;SDS011;6054;50.966;7.094;2023-07-16T02:13:09;3.28;;;1.60;;
11988;SDS011;6054;50.966;7.094;2023-07-16T02:15:36;2.42;;;1.25;;
11988;SDS011;6054;50.966;7.094;2023-07-16T02:18:03;3.35;;;1.33;;
11988;SDS011;6054;50.966;7.094;2023-07-16T02:20:31;3.40;;;1.50;;
11988;SDS011;6054;50.966;7.094;2023-07-16T02:22:58;3.67;;;1.55;;
11988;SDS011;6054;50.966;7.094;2023-07-16T02:25:25;7.28;;;1.95;;
11988;SDS011;6054;50.966;7.094;2023-07-16T02:27:52;3.95;;;1.60;;
11988;SDS011;6054;50.966;7.094;2023-07-16T02:30:19;4.47;;;1.60;;
11988;SDS011;6054;50.966;7.094;2023-07-16T02:32:47;4.05;;;1.20;;
11988;SDS011;6054;50.966;7.094;2023-07-16T02:35:13;2.45;;;1.80;;
11988;SDS011;6054;50.966;7.094;2023-07-16T02:37:42;4.90;;;1.33;;
11988;SDS011;6054;50.966;7.094;2023-07-16T02:40:09;2.63;;;1.30;;
11988;SDS011;6054;50.966;7.094;2023-07-16T02:42:36;2.92;;;1.67;;
11988;SDS011;6054;50.966;7.094;2023-07-16T02:45:03;2.35;;;1.13;;
11988;SDS011;6054;50.966;7.094;2023-07-16T02:47:30;1.63;;;1.50;;
11988;SDS011;6054;50.966;7.094;2023-07-16T02:49:57;4.80;;;1.50;;
11988;SDS011;6054;50.966;7.094;2023-07-16T02:52:24;3.70;;;1.67;;
11988;SDS011;6054;50.966;7.094;2023-07-16T02:54:52;4.47;;;1.33;;
11988;SDS011;6054;50.966;7.094;2023-07-16T02:59:47;2.78;;;1.33;;
11988;SDS011;6054;50.966;7.094;2023-07-16T03:02:14;5.97;;;1.48;;
11988;SDS011;6054;50.966;7.094;2023-07-16T03:04:40;2.95;;;1.60;;
11988;SDS011;6054;50.966;7.094;2023-07-16T03:07:07;5.88;;;1.50;;
11988;SDS011;6054;50.966;7.094;2023-07-16T03:09:34;3.38;;;1.50;;
11988;SDS011;6054;50.966;7.094;2023-07-16T03:12:02;3.92;;;1.88;;
11988;SDS011;6054;50.966;7.094;2023-07-16T03:14:29;3.33;;;1.60;;
11988;SDS011;6054;50.966;7.094;2023-07-16T03:16:56;1.92;;;1.52;;
11988;SDS011;6054;50.966;7.094;2023-07-16T03:19:23;4.35;;;1.67;;
11988;SDS011;6054;50.966;7.094;2023-07-16T03:21:50;3.50;;;1.50;;
11988;SDS011;6054;50.966;7.094;2023-07-16T03:24:15;2.63;;;1.20;;
11988;SDS011;6054;50.966;7.094;2023-07-16T03:26:42;1.98;;;1.40;;
11988;SDS011;6054;50.966;7.094;2023-07-16T03:29:10;3.08;;;1.60;;
11988;SDS011;6054;50.966;7.094;2023-07-16T03:31:37;2.33;;;1.45;;
11988;SDS011;6054;50.966;7.094;2023-07-16T03:34:04;1.77;;;1.40;;
11988;SDS011;6054;50.966;7.094;2023-07-16T03:36:30;5.88;;;1.55;;
11988;SDS011;6054;50.966;7.094;2023-07-16T03:38:57;3.03;;;1.52;;
11988;SDS011;6054;50.966;7.094;2023-07-16T03:41:24;3.60;;;1.70;;
11988;SDS011;6054;50.966;7.094;2023-07-16T03:43:51;6.03;;;1.60;;
11988;SDS011;6054;50.966;7.094;2023-07-16T03:46:19;5.60;;;2.08;;
11988;SDS011;6054;50.966;7.094;2023-07-16T03:48:46;3.53;;;1.70;;
11988;SDS011;6054;50.966;7.094;2023-07-16T03:51:13;5.13;;;1.70;;
11988;SDS011;6054;50.966;7.094;2023-07-16T03:53:39;4.45;;;1.40;;
11988;SDS011;6054;50.966;7.094;2023-07-16T03:56:06;3.17;;;1.55;;
11988;SDS011;6054;50.966;7.094;2023-07-16T03:58:33;4.75;;;1.67;;
11988;SDS011;6054;50.966;7.094;2023-07-16T04:01:00;3.92;;;1.48;;
11988;SDS011;6054;50.966;7.094;2023-07-16T04:03:28;3.80;;;1.67;;
11988;SDS011;6054;50.966;7.094;2023-07-16T04:06:00;2.85;;;1.50;;
11988;SDS011;6054;50.966;7.094;2023-07-16T04:08:28;3.65;;;1.75;;
11988;SDS011;6054;50.966;7.094;2023-07-16T04:10:54;4.25;;;1.85;;
11988;SDS011;6054;50.966;7.094;2023-07-16T04:13:21;4.20;;;1.63;;
11988;SDS011;6054;50.966;7.094;2023-07-16T04:15:48;8.32;;;2.35;;
11988;SDS011;6054;50.966;7.094;2023-07-16T04:18:18;1.63;;;1.45;;
11988;SDS011;6054;50.966;7.094;2023-07-16T04:20:46;5.05;;;2.05;;
11988;SDS011;6054;50.966;7.094;2023-07-16T04:23:12;3.95;;;1.58;;
11988;SDS011;6054;50.966;7.094;2023-07-16T04:25:39;4.00;;;1.58;;
11988;SDS011;6054;50.966;7.094;2023-07-16T04:28:06;4.15;;;1.58;;
11988;SDS011;6054;50.966;7.094;2023-07-16T04:30:33;5.70;;;1.60;;
11988;SDS011;6054;50.966;7.094;2023-07-16T04:32:59;3.72;;;1.50;;
11988;SDS011;6054;50.966;7.094;2023-07-16T04:35:26;3.67;;;1.60;;
11988;SDS011;6054;50.966;7.094;2023-07-16T04:37:54;4.70;;;1.77;;
11988;SDS011;6054;50.966;7.094;2023-07-16T04:40:21;2.45;;;1.60;;
11988;SDS011;6054;50.966;7.094;2023-07-16T04:42:48;4.30;;;2.00;;
11988;SDS011;6054;50.966;7.094;2023-07-16T04:45:15;4.22;;;1.60;;
11988;SDS011;6054;50.966;7.094;2023-07-16T04:47:41;3.72;;;1.63;;
11988;SDS011;6054;50.966;7.094;2023-07-16T04:50:08;3.63;;;1.70;;
11988;SDS011;6054;50.966;7.094;2023-07-16T04:52:35;4.05;;;1.75;;
11988;SDS011;6054;50.966;7.094;2023-07-16T04:55:04;3.03;;;1.60;;
11988;SDS011;6054;50.966;7.094;2023-07-16T04:57:32;3.60;;;1.95;;
11988;SDS011;6054;50.966;7.094;2023-07-16T04:59:59;4.68;;;2.08;;
11988;SDS011;6054;50.966;7.094;2023-07-16T05:02:26;3.65;;;1.70;;
11988;SDS011;6054;50.966;7.094;2023-07-16T05:04:53;2.75;;;1.90;;
11988;SDS011;6054;50.966;7.094;2023-07-16T05:07:19;5.10;;;1.98;;
11988;SDS011;6054;50.966;7.094;2023-07-16T05:09:46;2.30;;;1.65;;
11988;SDS011;6054;50.966;7.094;2023-07-16T05:12:14;4.20;;;2.00;;
11988;SDS011;6054;50.966;7.094;2023-07-16T05:14:44;4.35;;;1.40;;
11988;SDS011;6054;50.966;7.094;2023-07-16T05:17:13;6.13;;;2.20;;
11988;SDS011;6054;50.966;7.094;2023-07-16T05:19:39;4.35;;;1.92;;
11988;SDS011;6054;50.966;7.094;2023-07-16T05:22:07;4.88;;;2.10;;
11988;SDS011;6054;50.966;7.094;2023-07-16T05:24:33;5.28;;;2.13;;
11988;SDS011;6054;50.966;7.094;2023-07-16T05:27:00;2.78;;;1.90;;
11988;SDS011;6054;50.966;7.094;2023-07-16T05:29:28;6.75;;;2.28;;
11988;SDS011;6054;50.966;7.094;2023-07-16T05:31:55;4.50;;;2.40;;
11988;SDS011;6054;50.966;7.094;2023-07-16T05:34:22;4.47;;;2.10;;
11988;SDS011;6054;50.966;7.094;2023-07-16T05:36:49;6.85;;;2.17;;
11988;SDS011;6054;50.966;7.094;2023-07-16T05:39:18;7.38;;;2.40;;
11988;SDS011;6054;50.966;7.094;2023-07-16T05:41:45;5.25;;;2.33;;
11988;SDS011;6054;50.966;7.094;2023-07-16T05:44:12;3.30;;;1.90;;
11988;SDS011;6054;50.966;7.094;2023-07-16T05:46:40;5.22;;;2.40;;
11988;SDS011;6054;50.966;7.094;2023-07-16T05:49:07;7.50;;;2.53;;
11988;SDS011;6054;50.966;7.094;2023-07-16T05:51:33;6.32;;;2.60;;
11988;SDS011;6054;50.966;7.094;2023-07-16T05:54:00;5.85;;;2.30;;
11988;SDS011;6054;50.966;7.094;2023-07-16T05:56:27;5.53;;;2.40;;
11988;SDS011;6054;50.966;7.094;2023-07-16T05:58:54;3.28;;;2.30;;
11988;SDS011;6054;50.966;7.094;2023-07-16T06:01:21;2.85;;;2.13;;
11988;SDS011;6054;50.966;7.094;2023-07-16T06:03:49;4.15;;;2.58;;
11988;SDS011;6054;50.966;7.094;2023-07-16T06:06:16;6.95;;;2.88;;
11988;SDS011;6054;50.966;7.094;2023-07-16T06:08:43;4.68;;;2.60;;
11988;SDS011;6054;50.966;7.094;2023-07-16T06:11:10;4.72;;;2.85;;
11988;SDS011;6054;50.966;7.094;2023-07-16T06:13:37;6.18;;;2.60;;
11988;SDS011;6054;50.966;7.094;2023-07-16T06:16:04;5.13;;;2.78;;
11988;SDS011;6054;50.966;7.094;2023-07-16T06:18:31;6.22;;;3.03;;
11988;SDS011;6054;50.966;7.094;2023-07-16T06:20:59;5.25;;;2.80;;
11988;SDS011;6054;50.966;7.094;2023-07-16T06:23:26;5.78;;;2.92;;
11988;SDS011;6054;50.966;7.094;2023-07-16T06:25:56;5.20;;;3.40;;
11988;SDS011;6054;50.966;7.094;2023-07-16T06:28:22;6.05;;;3.33;;
11988;SDS011;6054;50.966;7.094;2023-07-16T06:30:50;4.25;;;3.08;;
11988;SDS011;6054;50.966;7.094;2023-07-16T06:33:17;5.53;;;3.30;;
11988;SDS011;6054;50.966;7.094;2023-07-16T06:35:44;5.65;;;3.13;;
11988;SDS011;6054;50.966;7.094;2023-07-16T06:38:13;5.38;;;3.00;;
11988;SDS011;6054;50.966;7.094;2023-07-16T06:40:45;5.53;;;3.30;;
11988;SDS011;6054;50.966;7.094;2023-07-16T06:43:13;7.35;;;3.33;;
11988;SDS011;6054;50.966;7.094;2023-07-16T06:45:40;6.20;;;3.53;;
11988;SDS011;6054;50.966;7.094;2023-07-16T06:48:07;7.03;;;3.42;;
11988;SDS011;6054;50.966;7.094;2023-07-16T06:50:34;5.75;;;3.47;;
11988;SDS011;6054;50.966;7.094;2023-07-16T06:53:00;6.22;;;3.60;;
11988;SDS011;6054;50.966;7.094;2023-07-16T06:55:29;8.07;;;3.40;;
11988;SDS011;6054;50.966;7.094;2023-07-16T06:57:56;8.50;;;3.85;;
11988;SDS011;6054;50.966;7.094;2023-07-16T07:00:23;6.13;;;3.22;;
11988;SDS011;6054;50.966;7.094;2023-07-16T07:02:49;6.13;;;3.20;;
11988;SDS011;6054;50.966;7.094;2023-07-16T07:05:16;5.80;;;3.60;;
11988;SDS011;6054;50.966;7.094;2023-07-16T07:07:43;7.65;;;3.35;;
11988;SDS011;6054;50.966;7.094;2023-07-16T07:10:11;4.72;;;3.10;;
11988;SDS011;6054;50.966;7.094;2023-07-16T07:12:39;10.90;;;3.90;;
11988;SDS011;6054;50.966;7.094;2023-07-16T07:15:07;6.93;;;3.13;;
11988;SDS011;6054;50.966;7.094;2023-07-16T07:17:34;4.85;;;2.95;;
11988;SDS011;6054;50.966;7.094;2023-07-16T07:20:02;9.30;;;3.40;;
11988;SDS011;6054;50.966;7.094;2023-07-16T07:22:29;5.72;;;3.03;;
11988;SDS011;6054;50.966;7.094;2023-07-16T07:24:56;5.68;;;3.10;;
11988;SDS011;6054;50.966;7.094;2023-07-16T07:27:23;4.47;;;3.47;;
11988;SDS011;6054;50.966;7.094;2023-07-16T07:29:51;6.68;;;3.35;;
11988;SDS011;6054;50.966;7.094;2023-07-16T07:32:20;7.85;;;3.53;;
11988;SDS011;6054;50.966;7.094;2023-07-16T07:34:50;6.28;;;3.30;;
11988;SDS011;6054;50.966;7.094;2023-07-16T07:37:22;7.13;;;3.70;;
11988;SDS011;6054;50.966;7.094;2023-07-16T07:39:59;4.68;;;3.40;;
11988;SDS011;6054;50.966;7.094;2023-07-16T07:42:27;6.60;;;3.50;;
11988;SDS011;6054;50.966;7.094;2023-07-16T07:44:56;6.07;;;3.50;;
11988;SDS011;6054;50.966;7.094;2023-07-16T07:47:23;5.07;;;3.30;;
11988;SDS011;6054;50.966;7.094;2023-07-16T07:49:50;5.60;;;3.55;;
11988;SDS011;6054;50.966;7.094;2023-07-16T07:52:19;6.90;;;3.40;;
11988;SDS011;6054;50.966;7.094;2023-07-16T07:54:49;6.25;;;3.53;;
11988;SDS011;6054;50.966;7.094;2023-07-16T07:57:16;6.47;;;3.67;;
11988;SDS011;6054;50.966;7.094;2023-07-16T07:59:43;5.63;;;3.45;;
11988;SDS011;6054;50.966;7.094;2023-07-16T08:02:11;5.70;;;3.17;;
11988;SDS011;6054;50.966;7.094;2023-07-16T08:04:38;6.22;;;4.05;;
11988;SDS011;6054;50.966;7.094;2023-07-16T08:07:05;4.35;;;3.05;;
11988;SDS011;6054;50.966;7.094;2023-07-16T08:09:33;7.75;;;3.70;;
11988;SDS011;6054;50.966;7.094;2023-07-16T08:12:00;6.78;;;3.47;;
11988;SDS011;6054;50.966;7.094;2023-07-16T08:14:26;6.47;;;3.42;;
11988;SDS011;6054;50.966;7.094;2023-07-16T08:16:53;4.15;;;3.47;;
11988;SDS011;6054;50.966;7.094;2023-07-16T08:19:22;5.38;;;3.58;;
11988;SDS011;6054;50.966;7.094;2023-07-16T08:21:48;6.88;;;3.42;;
11988;SDS011;6054;50.966;7.094;2023-07-16T08:24:15;7.82;;;3.50;;
11988;SDS011;6054;50.966;7.094;2023-07-16T08:26:42;4.90;;;3.30;;
11988;SDS011;6054;50.966;7.094;2023-07-16T08:29:09;5.18;;;3.55;;
11988;SDS011;6054;50.966;7.094;2023-07-16T08:31:36;5.50;;;3.50;;
11988;SDS011;6054;50.966;7.094;2023-07-16T08:34:03;8.70;;;3.85;;
11988;SDS011;6054;50.966;7.094;2023-07-16T08:36:32;4.05;;;3.63;;
11988;SDS011;6054;50.966;7.094;2023-07-16T08:38:59;7.75;;;3.60;;
11988;SDS011;6054;50.966;7.094;2023-07-16T08:41:26;4.53;;;3.63;;
11988;SDS011;6054;50.966;7.094;2023-07-16T08:43:53;7.93;;;3.97;;
11988;SDS011;6054;50.966;7.094;2023-07-16T08:46:21;6.07;;;4.05;;
11988;SDS011;6054;50.966;7.094;2023-07-16T08:48:48;4.45;;;3.63;;
11988;SDS011;6054;50.966;7.094;2023-07-16T08:51:16;7.38;;;3.90;;
11988;SDS011;6054;50.966;7.094;2023-07-16T08:53:48;7.60;;;4.18;;
11988;SDS011;6054;50.966;7.094;2023-07-16T08:56:15;5.82;;;3.92;;
11988;SDS011;6054;50.966;7.094;2023-07-16T08:58:42;5.90;;;3.90;;
11988;SDS011;6054;50.966;7.094;2023-07-16T09:01:10;8.57;;;4.43;;
11988;SDS011;6054;50.966;7.094;2023-07-16T09:03:37;5.35;;;3.75;;
11988;SDS011;6054;50.966;7.094;2023-07-16T09:06:04;5.43;;;3.30;;
11988;SDS011;6054;50.966;7.094;2023-07-16T09:08:31;6.00;;;3.75;;
11988;SDS011;6054;50.966;7.094;2023-07-16T09:11:00;3.90;;;3.35;;
11988;SDS011;6054;50.966;7.094;2023-07-16T09:13:28;4.28;;;3.45;;
11988;SDS011;6054;50.966;7.094;2023-07-16T09:15:56;4.03;;;3.47;;
11988;SDS011;6054;50.966;7.094;2023-07-16T09:18:27;6.13;;;3.97;;
11988;SDS011;6054;50.966;7.094;2023-07-16T09:20:55;4.22;;;3.83;;
11988;SDS011;6054;50.966;7.094;2023-07-16T09:23:29;5.25;;;3.47;;
11988;SDS011;6054;50.966;7.094;2023-07-16T09:25:57;5.93;;;3.80;;
11988;SDS011;6054;50.966;7.094;2023-07-16T09:28:25;6.57;;;3.70;;
11988;SDS011;6054;50.966;7.094;2023-07-16T09:30:52;5.57;;;2.90;;
11988;SDS011;6054;50.966;7.094;2023-07-16T09:33:20;4.20;;;3.00;;
11988;SDS011;6054;50.966;7.094;2023-07-16T09:35:48;7.38;;;3.20;;
11988;SDS011;6054;50.966;7.094;2023-07-16T09:38:16;4.38;;;3.35;;
11988;SDS011;6054;50.966;7.094;2023-07-16T09:40:43;4.00;;;3.00;;
11988;SDS011;6054;50.966;7.094;2023-07-16T09:43:11;4.47;;;3.00;;
11988;SDS011;6054;50.966;7.094;2023-07-16T09:45:40;4.22;;;3.15;;
11988;SDS011;6054;50.966;7.094;2023-07-16T09:48:08;5.43;;;3.30;;
11988;SDS011;6054;50.966;7.094;2023-07-16T09:50:35;3.35;;;3.05;;
11988;SDS011;6054;50.966;7.094;2023-07-16T09:53:03;3.20;;;2.90;;
11988;SDS011;6054;50.966;7.094;2023-07-16T09:55:33;6.18;;;2.60;;
11988;SDS011;6054;50.966;7.094;2023-07-16T09:58:02;3.08;;;2.53;;
11988;SDS011;6054;50.966;7.094;2023-07-16T10:00:32;4.07;;;2.80;;
11988;SDS011;6054;50.966;7.094;2023-07-16T10:03:02;3.85;;;2.47;;
11988;SDS011;6054;50.966;7.094;2023-07-16T10:05:29;3.30;;;2.40;;
11988;SDS011;6054;50.966;7.094;2023-07-16T10:07:56;8.70;;;2.38;;
11988;SDS011;6054;50.966;7.094;2023-07-16T10:10:25;3.78;;;2.42;;
11988;SDS011;6054;50.966;7.094;2023-07-16T10:13:01;2.95;;;2.40;;
11988;SDS011;6054;50.966;7.094;2023-07-16T10:15:29;4.45;;;2.80;;
11988;SDS011;6054;50.966;7.094;2023-07-16T10:17:56;5.88;;;2.83;;
11988;SDS011;6054;50.966;7.094;2023-07-16T10:20:32;3.20;;;2.90;;
11988;SDS011;6054;50.966;7.094;2023-07-16T10:23:09;5.60;;;2.83;;
11988;SDS011;6054;50.966;7.094;2023-07-16T10:25:37;5.57;;;2.97;;
11988;SDS011;6054;50.966;7.094;2023-07-16T10:28:04;4.78;;;2.60;;
11988;SDS011;6054;50.966;7.094;2023-07-16T10:30:32;4.57;;;2.85;;
11988;SDS011;6054;50.966;7.094;2023-07-16T10:33:02;4.47;;;2.80;;
11988;SDS011;6054;50.966;7.094;2023-07-16T10:35:32;3.45;;;2.88;;
11988;SDS011;6054;50.966;7.094;2023-07-16T10:38:00;2.85;;;2.50;;
11988;SDS011;6054;50.966;7.094;2023-07-16T10:40:27;5.88;;;2.95;;
11988;SDS011;6054;50.966;7.094;2023-07-16T10:42:55;3.03;;;2.60;;
11988;SDS011;6054;50.966;7.094;2023-07-16T10:45:23;4.20;;;2.85;;
11988;SDS011;6054;50.966;7.094;2023-07-16T10:47:53;2.70;;;2.42;;
11988;SDS011;6054;50.966;7.094;2023-07-16T10:50:20;3.50;;;2.63;;
11988;SDS011;6054;50.966;7.094;2023-07-16T10:52:52;3.13;;;2.75;;
11988;SDS011;6054;50.966;7.094;2023-07-16T10:55:20;4.68;;;2.90;;
11988;SDS011;6054;50.966;7.094;2023-07-16T10:57:47;3.70;;;2.50;;
11988;SDS011;6054;50.966;7.094;2023-07-16T11:00:15;4.45;;;2.95;;
11988;SDS011;6054;50.966;7.094;2023-07-16T11:02:42;3.50;;;2.75;;
11988;SDS011;6054;50.966;7.094;2023-07-16T11:05:11;3.13;;;2.50;;
11988;SDS011;6054;50.966;7.094;2023-07-16T11:07:42;3.70;;;2.40;;
11988;SDS011;6054;50.966;7.094;2023-07-16T11:10:10;4.82;;;2.70;;
11988;SDS011;6054;50.966;7.094;2023-07-16T11:12:38;4.35;;;2.67;;
11988;SDS011;6054;50.966;7.094;2023-07-16T11:15:05;4.72;;;2.58;;
11988;SDS011;6054;50.966;7.094;2023-07-16T11:17:33;3.25;;;2.50;;
11988;SDS011;6054;50.966;7.094;2023-07-16T11:20:00;2.97;;;2.50;;
11988;SDS011;6054;50.966;7.094;2023-07-16T11:22:27;3.38;;;2.65;;
11988;SDS011;6054;50.966;7.094;2023-07-16T11:24:54;4.32;;;2.25;;
11988;SDS011;6054;50.966;7.094;2023-07-16T11:27:23;5.30;;;2.40;;
11988;SDS011;6054;50.966;7.094;2023-07-16T11:29:51;2.53;;;2.20;;
11988;SDS011;6054;50.966;7.094;2023-07-16T11:32:29;3.45;;;2.72;;
11988;SDS011;6054;50.966;7.094;2023-07-16T11:34:57;3.00;;;2.42;;
11988;SDS011;6054;50.966;7.094;2023-07-16T11:37:24;3.22;;;2.72;;
11988;SDS011;6054;50.966;7.094;2023-07-16T11:39:54;3.10;;;2.30;;
11988;SDS011;6054;50.966;7.094;2023-07-16T11:42:29;2.45;;;2.25;;
11988;SDS011;6054;50.966;7.094;2023-07-16T11:44:56;4.03;;;2.53;;
11988;SDS011;6054;50.966;7.094;2023-07-16T11:47:23;7.03;;;2.92;;
11988;SDS011;6054;50.966;7.094;2023-07-16T11:49:50;2.65;;;2.45;;
11988;SDS011;6054;50.966;7.094;2023-07-16T11:52:18;4.10;;;2.50;;
11988;SDS011;6054;50.966;7.094;2023-07-16T11:54:46;3.65;;;2.47;;
11988;SDS011;6054;50.966;7.094;2023-07-16T11:57:13;4.15;;;2.40;;
11988;SDS011;6054;50.966;7.094;2023-07-16T11:59:41;2.88;;;2.33;;
11988;SDS011;6054;50.966;7.094;2023-07-16T12:02:08;2.65;;;2.42;;
11988;SDS011;6054;50.966;7.094;2023-07-16T12:04:35;5.13;;;2.55;;
11988;SDS011;6054;50.966;7.094;2023-07-16T12:07:04;4.25;;;2.83;;
11988;SDS011;6054;50.966;7.094;2023-07-16T12:09:31;4.60;;;2.60;;
11988;SDS011;6054;50.966;7.094;2023-07-16T12:11:57;4.07;;;2.80;;
11988;SDS011;6054;50.966;7.094;2023-07-16T12:14:25;3.58;;;2.90;;
11988;SDS011;6054;50.966;7.094;2023-07-16T12:16:53;4.07;;;2.42;;
11988;SDS011;6054;50.966;7.094;2023-07-16T12:19:21;3.28;;;2.45;;
11988;SDS011;6054;50.966;7.094;2023-07-16T12:21:48;7.30;;;2.85;;
11988;SDS011;6054;50.966;7.094;2023-07-16T12:24:15;3.10;;;2.80;;
11988;SDS011;6054;50.966;7.094;2023-07-16T12:26:42;4.00;;;2.35;;
11988;SDS011;6054;50.966;7.094;2023-07-16T12:29:09;3.35;;;2.50;;
11988;SDS011;6054;50.966;7.094;2023-07-16T12:31:35;3.28;;;2.50;;
11988;SDS011;6054;50.966;7.094;2023-07-16T12:34:04;7.38;;;2.95;;
11988;SDS011;6054;50.966;7.094;2023-07-16T12:36:30;5.05;;;2.92;;
11988;SDS011;6054;50.966;7.094;2023-07-16T12:38:57;3.53;;;2.80;;
11988;SDS011;6054;50.966;7.094;2023-07-16T12:41:25;4.15;;;2.60;;
11988;SDS011;6054;50.966;7.094;2023-07-16T12:43:51;5.00;;;2.75;;
11988;SDS011;6054;50.966;7.094;2023-07-16T12:46:18;4.32;;;2.85;;
11988;SDS011;6054;50.966;7.094;2023-07-16T12:48:46;6.15;;;3.00;;
11988;SDS011;6054;50.966;7.094;2023-07-16T12:51:14;6.55;;;2.80;;
11988;SDS011;6054;50.966;7.094;2023-07-16T12:53:41;13.13;;;3.25;;
11988;SDS011;6054;50.966;7.094;2023-07-16T12:56:08;4.38;;;2.72;;
11988;SDS011;6054;50.966;7.094;2023-07-16T12:58:35;2.70;;;2.50;;
11988;SDS011;6054;50.966;7.094;2023-07-16T13:01:02;3.67;;;2.85;;
11988;SDS011;6054;50.966;7.094;2023-07-16T13:03:29;4.90;;;3.22;;
11988;SDS011;6054;50.966;7.094;2023-07-16T13:05:55;3.45;;;3.08;;
11988;SDS011;6054;50.966;7.094;2023-07-16T13:08:24;4.95;;;2.70;;
11988;SDS011;6054;50.966;7.094;2023-07-16T13:10:50;5.15;;;2.80;;
11988;SDS011;6054;50.966;7.094;2023-07-16T13:13:17;4.05;;;2.85;;
11988;SDS011;6054;50.966;7.094;2023-07-16T13:15:45;3.95;;;2.97;;
11988;SDS011;6054;50.966;7.094;2023-07-16T13:18:12;4.38;;;2.78;;
11988;SDS011;6054;50.966;7.094;2023-07-16T13:20:39;4.43;;;3.00;;
11988;SDS011;6054;50.966;7.094;2023-07-16T13:23:05;3.90;;;2.92;;
11988;SDS011;6054;50.966;7.094;2023-07-16T13:25:34;5.03;;;2.65;;
11988;SDS011;6054;50.966;7.094;2023-07-16T13:28:03;8.90;;;3.00;;
11988;SDS011;6054;50.966;7.094;2023-07-16T13:30:30;2.75;;;2.55;;
11988;SDS011;6054;50.966;7.094;2023-07-16T13:32:57;3.92;;;3.20;;
11988;SDS011;6054;50.966;7.094;2023-07-16T13:35:24;4.65;;;2.90;;
11988;SDS011;6054;50.966;7.094;2023-07-16T13:37:51;3.80;;;2.75;;
11988;SDS011;6054;50.966;7.094;2023-07-16T13:40:17;3.78;;;2.92;;
11988;SDS011;6054;50.966;7.094;2023-07-16T13:42:47;4.45;;;3.10;;
11988;SDS011;6054;50.966;7.094;2023-07-16T13:45:14;3.03;;;2.72;;
11988;SDS011;6054;50.966;7.094;2023-07-16T13:47:41;4.78;;;3.10;;
11988;SDS011;6054;50.966;7.094;2023-07-16T13:50:15;5.53;;;3.40;;
11988;SDS011;6054;50.966;7.094;2023-07-16T13:52:56;8.93;;;3.38;;
11988;SDS011;6054;50.966;7.094;2023-07-16T13:55:28;3.42;;;2.55;;
11988;SDS011;6054;50.966;7.094;2023-07-16T13:58:00;3.75;;;3.05;;
11988;SDS011;6054;50.966;7.094;2023-07-16T14:00:28;6.15;;;2.88;;
11988;SDS011;6054;50.966;7.094;2023-07-16T14:02:54;2.95;;;2.65;;
11988;SDS011;6054;50.966;7.094;2023-07-16T14:05:21;3.67;;;3.30;;
11988;SDS011;6054;50.966;7.094;2023-07-16T14:07:48;5.53;;;3.15;;
11988;SDS011;6054;50.966;7.094;2023-07-16T14:10:16;4.30;;;3.40;;
11988;SDS011;6054;50.966;7.094;2023-07-16T14:12:43;4.25;;;3.08;;
11988;SDS011;6054;50.966;7.094;2023-07-16T14:15:11;3.80;;;3.30;;
11988;SDS011;6054;50.966;7.094;2023-07-16T14:17:38;7.40;;;3.42;;
11988;SDS011;6054;50.966;7.094;2023-07-16T14:20:05;5.93;;;2.95;;
11988;SDS011;6054;50.966;7.094;2023-07-16T14:22:33;4.70;;;3.17;;
11988;SDS011;6054;50.966;7.094;2023-07-16T14:24:59;3.53;;;2.70;;
11988;SDS011;6054;50.966;7.094;2023-07-16T14:27:27;3.28;;;2.97;;
11988;SDS011;6054;50.966;7.094;2023-07-16T14:29:54;4.63;;;2.80;;
11988;SDS011;6054;50.966;7.094;2023-07-16T14:32:22;4.40;;;2.88;;
11988;SDS011;6054;50.966;7.094;2023-07-16T14:34:49;4.43;;;3.33;;
11988;SDS011;6054;50.966;7.094;2023-07-16T14:37:16;4.13;;;2.83;;
11988;SDS011;6054;50.966;7.094;2023-07-16T14:39:44;4.50;;;2.47;;
11988;SDS011;6054;50.966;7.094;2023-07-16T14:42:23;4.45;;;2.83;;
11988;SDS011;6054;50.966;7.094;2023-07-16T14:44:50;4.38;;;3.17;;
11988;SDS011;6054;50.966;7.094;2023-07-16T14:47:17;4.05;;;3.00;;
11988;SDS011;6054;50.966;7.094;2023-07-16T14:49:45;3.63;;;2.70;;
11988;SDS011;6054;50.966;7.094;2023-07-16T14:52:12;5.10;;;3.05;;
11988;SDS011;6054;50.966;7.094;2023-07-16T14:54:39;4.95;;;2.88;;
11988;SDS011;6054;50.966;7.094;2023-07-16T14:57:06;3.55;;;2.65;;
11988;SDS011;6054;50.966;7.094;2023-07-16T14:59:32;3.00;;;2.70;;
11988;SDS011;6054;50.966;7.094;2023-07-16T15:01:59;6.82;;;2.53;;
11988;SDS011;6054;50.966;7.094;2023-07-16T15:04:26;4.88;;;2.53;;
11988;SDS011;6054;50.966;7.094;2023-07-16T15:06:54;4.15;;;2.67;;
11988;SDS011;6054;50.966;7.094;2023-07-16T15:09:22;4.22;;;2.67;;